createdAt,value
2022-09-21T00:00:44.719Z,100.00
2022-09-21T00:02:47.340Z,100.00
2022-09-21T00:04:50.965Z,100.00
2022-09-21T00:06:53.584Z,100.00
2022-09-21T00:08:58.011Z,100.00
2022-09-21T00:11:00.886Z,100.00
2022-09-21T00:13:05.147Z,100.00
2022-09-21T00:15:10.170Z,100.00
2022-09-21T00:17:12.788Z,100.00
2022-09-21T00:19:16.812Z,100.00
2022-09-21T00:21:19.563Z,100.00
2022-09-21T00:23:23.727Z,100.00
2022-09-21T00:25:27.856Z,100.00
2022-09-21T00:27:31.132Z,100.00
2022-09-21T00:29:33.894Z,100.00
2022-09-21T00:31:36.513Z,100.00
2022-09-21T00:33:39.749Z,100.00
2022-09-21T00:35:42.338Z,100.00
2022-09-21T00:37:44.901Z,100.00
2022-09-21T00:39:47.686Z,100.00
2022-09-21T00:41:53.538Z,100.00
2022-09-21T00:44:24.402Z,100.00
2022-09-21T00:46:30.911Z,100.00
2022-09-21T00:48:34.522Z,100.00
2022-09-21T00:50:43.676Z,100.00
2022-09-21T00:52:50.037Z,100.00
2022-09-21T00:54:55.572Z,100.00
2022-09-21T00:57:01.669Z,100.00
2022-09-21T00:59:05.405Z,100.00
2022-09-21T01:01:08.247Z,100.00
2022-09-21T01:03:12.956Z,100.00
2022-09-21T01:05:15.531Z,100.00
2022-09-21T01:07:20.804Z,100.00
2022-09-21T01:09:23.871Z,100.00
2022-09-21T01:11:35.327Z,100.00
2022-09-21T01:13:48.110Z,100.00
2022-09-21T01:15:58.746Z,100.00
2022-09-21T01:18:11.348Z,100.00
2022-09-21T01:20:55.047Z,100.00
2022-09-21T01:23:23.443Z,100.00
2022-09-21T01:25:35.977Z,100.00
2022-09-21T01:27:58.544Z,100.00
2022-09-21T01:30:05.549Z,100.00
2022-09-21T01:32:12.611Z,100.00
2022-09-21T01:34:21.032Z,100.00
2022-09-21T01:36:28.195Z,100.00
2022-09-21T01:38:37.236Z,100.00
2022-09-21T01:40:43.206Z,100.00
2022-09-21T01:42:49.343Z,100.00
2022-09-21T01:44:52.046Z,100.00
2022-09-21T01:46:58.318Z,100.00
2022-09-21T01:49:07.156Z,100.00
2022-09-21T01:51:12.644Z,100.00
2022-09-21T01:53:21.823Z,100.00
2022-09-21T01:55:28.715Z,100.00
2022-09-21T01:57:33.414Z,100.00
2022-09-21T01:59:40.248Z,100.00
2022-09-21T02:01:47.606Z,100.00
2022-09-21T02:03:55.334Z,100.00
2022-09-21T02:05:59.369Z,100.00
2022-09-21T02:08:02.524Z,100.00
2022-09-21T02:10:08.433Z,100.00
2022-09-21T02:12:11.802Z,100.00
2022-09-21T02:14:18.343Z,100.00
2022-09-21T02:16:34.922Z,100.00
2022-09-21T02:18:48.596Z,100.00
2022-09-21T02:20:58.602Z,100.00
2022-09-21T02:23:09.863Z,100.00
2022-09-21T02:25:16.595Z,100.00
2022-09-21T02:27:30.188Z,100.00
2022-09-21T02:29:42.484Z,100.00
2022-09-21T02:31:49.931Z,100.00
2022-09-21T02:34:00.137Z,100.00
2022-09-21T02:36:11.179Z,100.00
2022-09-21T02:38:22.651Z,100.00
2022-09-21T02:40:30.341Z,100.00
2022-09-21T02:42:39.142Z,100.00
2022-09-21T02:44:47.323Z,100.00
2022-09-21T02:46:54.997Z,100.00
2022-09-21T02:49:01.763Z,100.00
2022-09-21T02:51:11.137Z,100.00
2022-09-21T02:53:17.924Z,100.00
2022-09-21T02:55:20.519Z,100.00
2022-09-21T02:57:24.555Z,100.00
2022-09-21T02:59:28.175Z,100.00
2022-09-21T03:01:32.821Z,100.00
2022-09-21T03:03:35.739Z,100.00
2022-09-21T03:05:38.312Z,100.00
2022-09-21T03:07:42.880Z,100.00
2022-09-21T03:09:45.736Z,100.00
2022-09-21T03:11:48.907Z,100.00
2022-09-21T03:13:51.475Z,100.00
2022-09-21T03:16:00.863Z,100.00
2022-09-21T03:18:04.957Z,100.00
2022-09-21T03:20:08.320Z,100.00
2022-09-21T03:22:10.963Z,100.00
2022-09-21T03:24:34.855Z,100.00
2022-09-21T03:26:37.599Z,100.00
2022-09-21T03:28:40.544Z,100.00
2022-09-21T03:30:43.525Z,100.00
2022-09-21T03:32:46.150Z,100.00
2022-09-21T03:34:48.742Z,100.00
2022-09-21T03:36:51.352Z,100.00
2022-09-21T03:38:54.183Z,100.00
2022-09-21T03:40:58.226Z,100.00
2022-09-21T03:43:01.118Z,100.00
2022-09-21T03:45:03.728Z,100.00
2022-09-21T03:47:07.475Z,100.00
2022-09-21T03:49:10.039Z,100.00
2022-09-21T03:51:12.653Z,100.00
2022-09-21T03:53:15.972Z,100.00
2022-09-21T03:55:18.691Z,100.00
2022-09-21T03:57:22.728Z,100.00
2022-09-21T03:59:25.415Z,100.00
2022-09-21T04:01:28.053Z,100.00
2022-09-21T04:03:31.055Z,100.00
2022-09-21T04:05:33.766Z,100.00
2022-09-21T04:07:36.767Z,100.00
2022-09-21T04:09:39.373Z,100.00
2022-09-21T04:11:41.959Z,100.00
2022-09-21T04:13:51.171Z,100.00
2022-09-21T04:15:53.748Z,100.00
2022-09-21T04:17:56.569Z,100.00
2022-09-21T04:19:59.163Z,100.00
2022-09-21T04:22:01.742Z,100.00
2022-09-21T04:24:05.115Z,100.00
2022-09-21T04:26:07.678Z,100.00
2022-09-21T04:28:10.258Z,100.00
2022-09-21T04:30:16.212Z,100.00
2022-09-21T04:32:19.225Z,100.00
2022-09-21T04:34:22.047Z,100.00
2022-09-21T04:36:26.568Z,100.00
2022-09-21T04:38:29.136Z,100.00
2022-09-21T04:40:32.029Z,100.00
2022-09-21T04:42:34.676Z,100.00
2022-09-21T04:44:37.559Z,100.00
2022-09-21T04:46:42.374Z,100.00
2022-09-21T04:48:46.160Z,100.00
2022-09-21T04:50:50.037Z,100.00
2022-09-21T04:52:52.623Z,100.00
2022-09-21T04:54:56.403Z,100.00
2022-09-21T04:56:59.042Z,100.00
2022-09-21T04:59:01.656Z,100.00
2022-09-21T05:01:06.199Z,100.00
2022-09-21T05:03:10.348Z,100.00
2022-09-21T05:05:13.287Z,100.00
2022-09-21T05:07:15.860Z,100.00
2022-09-21T05:09:36.174Z,100.00
2022-09-21T05:11:38.983Z,100.00
2022-09-21T05:13:41.690Z,100.00
2022-09-21T05:15:44.296Z,100.00
2022-09-21T05:17:47.000Z,100.00
2022-09-21T05:19:51.395Z,100.00
2022-09-21T05:21:54.005Z,100.00
2022-09-21T05:23:57.357Z,100.00
2022-09-21T05:26:01.118Z,100.00
2022-09-21T05:28:04.355Z,100.00
2022-09-21T05:30:08.460Z,100.00
2022-09-21T05:32:18.196Z,100.00
2022-09-21T05:34:34.324Z,100.00
2022-09-21T05:36:48.774Z,100.00
2022-09-21T05:38:52.002Z,100.00
2022-09-21T05:40:55.195Z,100.00
2022-09-21T05:42:58.349Z,100.00
2022-09-21T05:45:01.432Z,100.00
2022-09-21T05:47:14.068Z,100.00
2022-09-21T05:49:21.508Z,100.00
2022-09-21T05:51:34.387Z,100.00
2022-09-21T05:53:51.609Z,100.00
2022-09-21T05:55:58.054Z,100.00
2022-09-21T05:58:09.964Z,100.00
2022-09-21T06:00:18.828Z,100.00
2022-09-21T06:02:32.960Z,100.00
2022-09-21T06:04:36.238Z,100.00
2022-09-21T06:06:38.880Z,100.00
2022-09-21T06:08:42.858Z,100.00
2022-09-21T06:10:45.591Z,100.00
2022-09-21T06:12:48.231Z,100.00
2022-09-21T06:14:50.848Z,100.00
2022-09-21T06:16:54.191Z,100.00
2022-09-21T06:18:56.875Z,100.00
2022-09-21T06:20:59.523Z,100.00
2022-09-21T06:23:02.568Z,100.00
2022-09-21T06:25:07.817Z,100.00
2022-09-21T06:27:10.448Z,100.00
2022-09-21T06:29:13.056Z,100.00
2022-09-21T06:31:15.615Z,100.00
2022-09-21T06:33:21.139Z,100.00
2022-09-21T06:35:23.764Z,100.00
2022-09-21T06:37:26.368Z,100.00
2022-09-21T06:39:28.973Z,100.00
2022-09-21T06:41:34.425Z,100.00
2022-09-21T06:43:37.202Z,100.00
2022-09-21T06:45:40.023Z,100.00
2022-09-21T06:47:47.820Z,100.00
2022-09-21T06:49:50.417Z,100.00
2022-09-21T06:51:53.042Z,100.00
2022-09-21T06:53:56.953Z,100.00
2022-09-21T06:56:03.770Z,100.00
2022-09-21T06:58:07.721Z,100.00
2022-09-21T07:00:13.034Z,100.00
2022-09-21T07:02:15.996Z,100.00
2022-09-21T07:04:21.974Z,100.00
2022-09-21T07:06:29.334Z,100.00
2022-09-21T07:10:58.396Z,100.00
2022-09-21T07:13:03.981Z,100.00
2022-09-21T07:15:10.244Z,100.00
2022-09-21T07:17:15.713Z,100.00
2022-09-21T07:19:19.119Z,100.00
2022-09-21T07:21:22.202Z,100.00
2022-09-21T07:23:24.857Z,100.00
2022-09-21T07:25:27.525Z,100.00
2022-09-21T07:27:31.450Z,100.00
2022-09-21T07:29:34.130Z,100.00
2022-09-21T07:31:38.548Z,100.00
2022-09-21T07:33:42.317Z,100.00
2022-09-21T07:35:52.069Z,100.00
2022-09-21T07:37:56.447Z,100.00
2022-09-21T07:39:59.143Z,100.00
2022-09-21T07:42:01.960Z,100.00
2022-09-21T07:44:04.889Z,100.00
2022-09-21T07:46:08.012Z,100.00
2022-09-21T07:48:12.011Z,100.00
2022-09-21T07:50:14.696Z,100.00
2022-09-21T07:52:18.360Z,100.00
2022-09-21T07:54:21.022Z,99.83
2022-09-21T07:56:24.602Z,98.37
2022-09-21T07:58:44.877Z,96.18
2022-09-21T08:00:47.582Z,86.23
2022-09-21T08:02:50.326Z,89.11
2022-09-21T08:04:54.837Z,90.04
2022-09-21T08:06:57.430Z,85.04
2022-09-21T08:09:00.241Z,86.98
2022-09-21T08:11:07.334Z,87.01
2022-09-21T08:13:09.953Z,87.65
2022-09-21T08:15:37.062Z,92.27
2022-09-21T08:17:39.382Z,94.07
2022-09-21T08:19:42.011Z,92.91
2022-09-21T08:21:47.035Z,90.98
2022-09-21T08:23:50.158Z,92.88
2022-09-21T08:25:53.196Z,88.96
2022-09-21T08:28:00.462Z,91.58
2022-09-21T08:30:03.623Z,89.61
2022-09-21T08:32:06.694Z,90.84
2022-09-21T08:34:09.367Z,87.94
2022-09-21T08:36:12.153Z,88.53
2022-09-21T08:38:16.241Z,84.02
2022-09-21T08:40:20.375Z,82.12
2022-09-21T08:42:45.486Z,74.90
2022-09-21T08:44:55.208Z,74.96
2022-09-21T08:47:06.032Z,71.16
2022-09-21T08:49:14.320Z,77.85
2022-09-21T08:51:23.179Z,72.00
2022-09-21T08:53:33.459Z,74.43
2022-09-21T08:55:36.139Z,71.78
2022-09-21T08:57:38.784Z,62.85
2022-09-21T08:59:44.141Z,65.68
2022-09-21T09:01:58.356Z,62.30
2022-09-21T09:04:16.151Z,58.70
2022-09-21T09:06:28.380Z,61.90
2022-09-21T09:09:05.460Z,57.90
2022-09-21T09:11:21.024Z,57.43
2022-09-21T09:13:52.600Z,61.81
2022-09-21T09:16:07.109Z,60.79
2022-09-21T09:18:16.663Z,58.39
2022-09-21T09:20:22.811Z,58.78
2022-09-21T09:22:30.932Z,58.64
2022-09-21T09:24:42.713Z,60.09
2022-09-21T09:26:49.981Z,56.55
2022-09-21T09:28:56.355Z,59.80
2022-09-21T09:31:02.425Z,55.03
2022-09-21T09:33:12.748Z,60.05
2022-09-21T09:35:23.786Z,56.59
2022-09-21T09:37:33.117Z,52.45
2022-09-21T09:39:37.324Z,64.64
2022-09-21T09:41:52.599Z,56.64
2022-09-21T09:44:08.947Z,58.29
2022-09-21T09:46:19.184Z,55.47
2022-09-21T09:48:41.219Z,57.02
2022-09-21T09:50:44.128Z,58.61
2022-09-21T09:52:47.954Z,55.58
2022-09-21T09:54:51.881Z,50.62
2022-09-21T09:56:55.269Z,50.53
2022-09-21T09:59:00.164Z,52.54
2022-09-21T10:01:02.726Z,57.01
2022-09-21T10:03:18.001Z,63.09
2022-09-21T10:05:24.205Z,66.70
2022-09-21T10:07:38.704Z,68.36
2022-09-21T10:09:41.491Z,72.05
2022-09-21T10:11:45.492Z,66.96
2022-09-21T10:13:50.296Z,69.49
2022-09-21T10:15:56.959Z,70.47
2022-09-21T10:18:05.440Z,73.74
2022-09-21T10:20:17.088Z,75.38
2022-09-21T10:22:21.588Z,76.40
2022-09-21T10:24:26.554Z,77.11
2022-09-21T10:26:33.433Z,74.21
2022-09-21T10:28:38.128Z,73.37
2022-09-21T10:30:41.321Z,75.05
2022-09-21T10:32:56.723Z,77.43
2022-09-21T10:35:14.863Z,75.73
2022-09-21T10:37:28.145Z,76.36
2022-09-21T10:39:31.805Z,78.27
2022-09-21T10:41:34.529Z,79.46
2022-09-21T10:43:44.481Z,79.29
2022-09-21T10:45:54.906Z,78.69
2022-09-21T10:47:59.841Z,76.70
2022-09-21T10:50:05.250Z,73.63
2022-09-21T10:52:08.344Z,69.77
2022-09-21T10:54:11.226Z,70.36
2022-09-21T10:56:19.684Z,66.18
2022-09-21T10:58:22.417Z,66.85
2022-09-21T11:00:35.903Z,62.99
2022-09-21T11:02:39.476Z,65.14
2022-09-21T11:04:47.131Z,66.60
2022-09-21T11:06:53.638Z,65.33
2022-09-21T11:09:00.367Z,65.87
2022-09-21T11:11:14.866Z,65.68
2022-09-21T11:13:26.195Z,67.60
2022-09-21T11:15:43.257Z,66.10
2022-09-21T11:17:53.445Z,67.07
2022-09-21T11:20:05.115Z,66.91
2022-09-21T11:22:13.922Z,65.28
2022-09-21T11:24:24.406Z,64.77
2022-09-21T11:26:33.786Z,64.23
2022-09-21T11:28:41.713Z,65.12
2022-09-21T11:31:00.093Z,65.33
2022-09-21T11:33:10.690Z,65.01
2022-09-21T11:35:36.572Z,65.07
2022-09-21T11:38:05.223Z,62.46
2022-09-21T11:40:22.464Z,60.58
2022-09-21T11:42:41.846Z,61.17
2022-09-21T11:44:52.991Z,59.83
2022-09-21T11:47:03.483Z,61.59
2022-09-21T11:49:22.456Z,62.50
2022-09-21T11:51:38.620Z,63.48
2022-09-21T11:53:57.460Z,63.79
2022-09-21T11:56:25.164Z,61.65
2022-09-21T11:58:34.360Z,61.33
2022-09-21T12:00:48.193Z,61.28
2022-09-21T12:03:23.755Z,57.42
2022-09-21T12:05:33.925Z,58.83
2022-09-21T12:07:50.319Z,56.82
2022-09-21T12:10:11.614Z,57.70
2022-09-21T12:12:19.121Z,58.23
2022-09-21T12:14:29.418Z,58.53
2022-09-21T12:16:40.088Z,59.22
2022-09-21T12:18:52.312Z,59.81
2022-09-21T12:21:02.476Z,56.35
2022-09-21T12:23:11.702Z,57.17
2022-09-21T12:25:18.309Z,58.66
2022-09-21T12:27:27.912Z,57.62
2022-09-21T12:29:38.049Z,57.20
2022-09-21T12:31:48.214Z,55.45
2022-09-21T12:33:57.958Z,55.69
2022-09-21T12:36:08.709Z,55.06
2022-09-21T12:38:16.386Z,57.09
2022-09-21T12:40:27.737Z,56.12
2022-09-21T12:42:37.348Z,55.12
2022-09-21T12:44:52.890Z,54.78
2022-09-21T12:47:09.153Z,54.51
2022-09-21T12:49:25.171Z,55.30
2022-09-21T12:51:34.501Z,54.62
2022-09-21T12:53:40.080Z,53.46
2022-09-21T12:55:50.147Z,53.76
2022-09-21T12:58:14.532Z,53.14
2022-09-21T13:00:20.535Z,53.40
2022-09-21T13:02:33.264Z,54.77
2022-09-21T13:04:46.894Z,55.88
2022-09-21T13:07:09.245Z,54.15
2022-09-21T13:09:14.995Z,54.53
2022-09-21T13:11:21.343Z,53.83
2022-09-21T13:13:29.234Z,55.09
2022-09-21T13:15:34.122Z,53.51
2022-09-21T13:17:36.900Z,53.58
2022-09-21T13:19:41.418Z,52.85
2022-09-21T13:21:44.428Z,52.54
2022-09-21T13:23:56.036Z,52.48
2022-09-21T13:26:05.318Z,52.96
2022-09-21T13:28:20.068Z,52.45
2022-09-21T13:30:32.465Z,51.99
2022-09-21T13:32:51.693Z,50.74
2022-09-21T13:35:33.982Z,49.96
2022-09-21T13:37:36.599Z,51.10
2022-09-21T13:39:44.580Z,51.85
2022-09-21T13:42:03.993Z,52.31
2022-09-21T13:44:21.020Z,51.43
2022-09-21T13:46:55.772Z,50.95
2022-09-21T13:48:58.734Z,50.87
2022-09-21T13:51:09.997Z,50.48
2022-09-21T13:53:20.970Z,50.70
2022-09-21T13:55:30.461Z,50.82
2022-09-21T13:57:39.071Z,53.08
2022-09-21T13:59:43.639Z,53.30
2022-09-21T14:01:47.678Z,54.56
2022-09-21T14:03:54.605Z,54.72
2022-09-21T14:06:02.010Z,55.68
2022-09-21T14:08:18.431Z,53.20
2022-09-21T14:10:23.454Z,53.88
2022-09-21T14:12:29.536Z,54.87
2022-09-21T14:14:35.022Z,54.94
2022-09-21T14:16:55.696Z,54.20
2022-09-21T14:18:58.373Z,55.18
2022-09-21T14:21:16.992Z,56.90
2022-09-21T14:23:30.021Z,56.84
2022-09-21T14:26:01.893Z,56.88
2022-09-21T14:28:11.929Z,57.81
2022-09-21T14:30:20.696Z,57.08
2022-09-21T14:32:26.309Z,58.34
2022-09-21T14:34:35.786Z,58.90
2022-09-21T14:36:42.919Z,58.53
2022-09-21T14:38:53.537Z,59.05
2022-09-21T14:41:00.644Z,58.41
2022-09-21T14:43:09.665Z,56.99
2022-09-21T14:45:18.063Z,55.26
2022-09-21T14:47:34.182Z,55.59
2022-09-21T14:49:52.976Z,54.66
2022-09-21T14:52:12.903Z,55.20
2022-09-21T14:54:34.939Z,54.52
2022-09-21T14:57:01.095Z,55.06
2022-09-21T14:59:33.670Z,54.57
2022-09-21T15:01:38.619Z,55.05
2022-09-21T15:03:58.487Z,54.82
2022-09-21T15:06:30.916Z,54.37
2022-09-21T15:09:09.690Z,54.78
2022-09-21T15:11:21.711Z,54.80
2022-09-21T15:13:48.726Z,53.85
2022-09-21T15:16:07.104Z,53.71
2022-09-21T15:18:20.380Z,52.97
2022-09-21T15:20:24.297Z,53.57
2022-09-21T15:22:27.544Z,54.10
2022-09-21T15:24:32.595Z,54.27
2022-09-21T15:26:37.720Z,54.71
2022-09-21T15:29:08.497Z,53.87
2022-09-21T15:31:11.930Z,53.51
2022-09-21T15:33:14.884Z,52.58
2022-09-21T15:35:21.392Z,52.33
2022-09-21T15:37:24.014Z,53.32
2022-09-21T15:39:28.777Z,52.66
2022-09-21T15:41:44.811Z,53.05
2022-09-21T15:43:51.360Z,53.15
2022-09-21T15:45:58.036Z,53.28
2022-09-21T15:48:00.854Z,53.49
2022-09-21T15:50:03.986Z,53.75
2022-09-21T15:52:19.405Z,52.72
2022-09-21T15:54:33.669Z,53.85
2022-09-21T15:56:40.443Z,54.22
2022-09-21T15:58:45.830Z,54.20
2022-09-21T16:00:54.952Z,54.57
2022-09-21T16:03:05.221Z,54.90
2022-09-21T16:05:13.986Z,54.66
2022-09-21T16:07:26.787Z,54.52
2022-09-21T16:09:39.108Z,54.69
2022-09-21T16:11:42.460Z,55.06
2022-09-21T16:14:04.868Z,55.42
2022-09-21T16:16:09.696Z,54.58
2022-09-21T16:18:32.169Z,54.51
2022-09-21T16:20:47.360Z,55.41
2022-09-21T16:22:52.463Z,55.43
2022-09-21T16:24:56.923Z,55.92
2022-09-21T16:27:02.022Z,54.88
2022-09-21T16:29:23.424Z,55.33
2022-09-21T16:31:31.860Z,54.96
2022-09-21T16:33:44.014Z,56.55
2022-09-21T16:35:47.007Z,55.94
2022-09-21T16:37:50.051Z,57.34
2022-09-21T16:39:53.888Z,56.86
2022-09-21T16:41:59.949Z,57.66
2022-09-21T16:44:03.244Z,57.80
2022-09-21T16:46:08.154Z,57.62
2022-09-21T16:48:13.832Z,57.58
2022-09-21T16:50:20.334Z,58.58
2022-09-21T16:52:23.065Z,57.73
2022-09-21T16:54:27.135Z,59.05
2022-09-21T16:56:30.007Z,59.41
2022-09-21T16:58:32.748Z,59.35
2022-09-21T17:00:41.072Z,58.86
2022-09-21T17:02:45.268Z,60.53
2022-09-21T17:04:48.859Z,60.93
2022-09-21T17:06:52.318Z,60.65
2022-09-21T17:08:54.964Z,59.97
2022-09-21T17:10:57.909Z,59.97
2022-09-21T17:13:00.623Z,61.21
2022-09-21T17:15:04.143Z,60.11
2022-09-21T17:17:14.112Z,60.54
2022-09-21T17:19:19.331Z,62.04
2022-09-21T17:21:21.948Z,61.72
2022-09-21T17:23:29.074Z,62.18
2022-09-21T17:25:32.775Z,61.95
2022-09-21T17:27:36.706Z,63.32
2022-09-21T17:29:47.133Z,63.40
2022-09-21T17:31:53.523Z,64.22
2022-09-21T17:33:57.065Z,64.28
2022-09-21T17:36:02.271Z,65.23
2022-09-21T17:38:04.912Z,66.91
2022-09-21T17:40:11.157Z,66.92
2022-09-21T17:42:18.954Z,68.92
2022-09-21T17:44:46.398Z,68.36
2022-09-21T17:46:58.204Z,68.49
2022-09-21T17:49:01.275Z,68.75
2022-09-21T17:51:06.123Z,68.07
2022-09-21T17:53:28.213Z,69.32
2022-09-21T17:55:31.959Z,69.25
2022-09-21T17:57:44.813Z,69.85
2022-09-21T17:59:54.681Z,70.50
2022-09-21T18:02:00.034Z,71.36
2022-09-21T18:04:03.474Z,71.26
2022-09-21T18:06:09.059Z,72.57
2022-09-21T18:08:12.121Z,76.14
2022-09-21T18:10:15.831Z,77.20
2022-09-21T18:12:48.712Z,79.48
2022-09-21T18:14:57.051Z,81.20
2022-09-21T18:17:11.720Z,75.66
2022-09-21T18:19:30.967Z,76.95
2022-09-21T18:21:41.574Z,79.17
2022-09-21T18:23:54.101Z,80.58
2022-09-21T18:25:57.454Z,82.43
2022-09-21T18:28:12.115Z,83.09
2022-09-21T18:30:16.280Z,78.86
2022-09-21T18:32:53.636Z,76.92
2022-09-21T18:35:12.277Z,76.53
2022-09-21T18:37:23.372Z,76.90
2022-09-21T18:39:37.313Z,74.81
2022-09-21T18:41:45.679Z,75.78
2022-09-21T18:44:05.262Z,75.61
2022-09-21T18:46:14.751Z,77.52
2022-09-21T18:48:36.423Z,79.12
2022-09-21T18:50:44.339Z,77.86
2022-09-21T18:52:58.210Z,77.18
2022-09-21T18:55:02.049Z,74.35
2022-09-21T18:57:12.099Z,76.00
2022-09-21T18:59:15.741Z,75.84
2022-09-21T19:01:21.758Z,76.04
2022-09-21T19:03:25.261Z,75.86
2022-09-21T19:05:28.689Z,78.13
2022-09-21T19:07:40.075Z,75.19
2022-09-21T19:09:52.086Z,77.24
2022-09-21T19:12:03.277Z,77.79
2022-09-21T19:14:13.607Z,76.72
2022-09-21T19:16:25.039Z,76.68
2022-09-21T19:18:49.437Z,75.75
2022-09-21T19:21:02.156Z,75.50
2022-09-21T19:23:16.431Z,76.84
2022-09-21T19:25:31.001Z,74.90
2022-09-21T19:27:39.688Z,73.58
2022-09-21T19:29:50.960Z,73.75
2022-09-21T19:31:54.106Z,77.33
2022-09-21T19:33:56.965Z,77.73
2022-09-21T19:36:00.973Z,76.56
2022-09-21T19:38:04.882Z,73.38
2022-09-21T19:40:08.911Z,72.64
2022-09-21T19:42:29.263Z,75.32
2022-09-21T19:44:43.269Z,75.50
2022-09-21T19:46:52.012Z,74.24
2022-09-21T19:49:02.662Z,73.73
2022-09-21T19:51:05.811Z,73.80
2022-09-21T19:53:28.379Z,74.77
2022-09-21T19:55:49.145Z,77.55
2022-09-21T19:58:12.177Z,77.80
2022-09-21T20:00:17.580Z,72.71
2022-09-21T20:02:28.678Z,72.62
2022-09-21T20:04:36.570Z,72.85
2022-09-21T20:06:46.509Z,73.58
2022-09-21T20:08:56.435Z,75.16
2022-09-21T20:11:08.292Z,73.21
2022-09-21T20:13:24.793Z,74.64
2022-09-21T20:15:33.577Z,75.73
2022-09-21T20:17:43.432Z,79.25
2022-09-21T20:19:53.520Z,80.50
2022-09-21T20:22:04.463Z,81.50
2022-09-21T20:24:18.021Z,79.05
2022-09-21T20:26:25.048Z,78.57
2022-09-21T20:28:29.735Z,79.59
2022-09-21T20:30:35.598Z,82.69
2022-09-21T20:32:40.159Z,77.89
2022-09-21T20:34:42.767Z,79.90
2022-09-21T20:36:45.618Z,80.14
2022-09-21T20:38:48.834Z,78.54
2022-09-21T20:40:52.369Z,80.79
2022-09-21T20:42:55.557Z,81.21
2022-09-21T20:44:59.510Z,82.29
2022-09-21T20:47:02.135Z,83.23
2022-09-21T20:49:08.461Z,80.98
2022-09-21T20:51:11.294Z,84.84
2022-09-21T20:53:14.083Z,84.80
2022-09-21T20:55:20.143Z,85.77
2022-09-21T20:57:22.786Z,87.37
2022-09-21T20:59:27.104Z,83.79
2022-09-21T21:01:31.132Z,84.19
2022-09-21T21:03:34.255Z,85.19
2022-09-21T21:05:37.121Z,86.62
2022-09-21T21:07:42.361Z,85.15
2022-09-21T21:09:45.003Z,88.25
2022-09-21T21:11:47.591Z,88.81
2022-09-21T21:13:50.536Z,89.90
2022-09-21T21:15:53.814Z,89.57
2022-09-21T21:17:57.906Z,91.75
2022-09-21T21:20:00.467Z,90.63
2022-09-21T21:22:03.193Z,90.75
2022-09-21T21:24:24.199Z,91.28
2022-09-21T21:26:50.382Z,90.43
2022-09-21T21:28:52.596Z,90.36
2022-09-21T21:30:56.789Z,91.07
2022-09-21T21:33:01.719Z,89.64
2022-09-21T21:35:05.350Z,91.54
2022-09-21T21:37:09.053Z,93.13
2022-09-21T21:39:11.745Z,92.10
2022-09-21T21:41:14.835Z,92.78
2022-09-21T21:43:17.514Z,95.87
2022-09-21T21:45:21.563Z,92.45
2022-09-21T21:47:41.103Z,95.34
2022-09-21T21:49:45.366Z,94.15
2022-09-21T21:51:49.294Z,92.42
2022-09-21T21:53:52.086Z,94.74
2022-09-21T21:56:03.122Z,93.32
2022-09-21T21:58:05.837Z,97.73
2022-09-21T22:00:09.933Z,96.72
2022-09-21T22:02:12.978Z,98.80
2022-09-21T22:04:15.608Z,99.22
2022-09-21T22:06:19.977Z,98.36
2022-09-21T22:08:22.629Z,99.77
2022-09-21T22:10:25.644Z,98.73
2022-09-21T22:12:28.307Z,99.60
2022-09-21T22:14:31.149Z,100.00
2022-09-21T22:16:35.969Z,97.40
2022-09-21T22:18:39.792Z,97.67
2022-09-21T22:20:42.437Z,96.85
2022-09-21T22:22:46.404Z,98.41
2022-09-21T22:24:49.036Z,99.17
2022-09-21T22:26:51.748Z,97.89
2022-09-21T22:28:56.738Z,99.31
2022-09-21T22:31:00.033Z,98.64
2022-09-21T22:33:03.043Z,97.57
2022-09-21T22:35:06.539Z,98.83
2022-09-21T22:37:09.136Z,98.19
2022-09-21T22:39:13.610Z,100.00
2022-09-21T22:41:18.425Z,100.00
2022-09-21T22:43:21.032Z,99.71
2022-09-21T22:45:26.148Z,98.20
2022-09-21T22:47:28.759Z,100.00
2022-09-21T22:49:31.367Z,100.00
2022-09-21T22:51:34.516Z,100.00
2022-09-21T22:53:37.108Z,97.44
2022-09-21T22:55:41.179Z,96.95
2022-09-21T22:57:43.925Z,96.26
2022-09-21T22:59:46.532Z,94.86
2022-09-21T23:01:49.205Z,93.21
2022-09-21T23:03:53.725Z,92.78
2022-09-21T23:05:57.348Z,91.83
2022-09-21T23:08:00.022Z,91.65
2022-09-21T23:10:02.697Z,92.50
2022-09-21T23:12:07.203Z,92.93
2022-09-21T23:14:11.411Z,91.99
2022-09-21T23:16:15.373Z,91.68
2022-09-21T23:18:18.801Z,90.78
2022-09-21T23:20:21.367Z,89.04
2022-09-21T23:22:24.258Z,89.85
2022-09-21T23:24:27.238Z,91.30
2022-09-21T23:26:31.957Z,90.43
2022-09-21T23:28:37.209Z,90.14
2022-09-21T23:30:39.806Z,90.09
2022-09-21T23:32:42.363Z,90.52
2022-09-21T23:34:45.061Z,89.76
2022-09-21T23:36:47.683Z,89.59
2022-09-21T23:38:50.896Z,90.14
2022-09-21T23:40:53.571Z,90.48
2022-09-21T23:42:56.436Z,90.75
2022-09-21T23:45:00.486Z,90.18
2022-09-21T23:47:03.085Z,90.93
2022-09-21T23:49:05.842Z,91.14
2022-09-21T23:51:08.500Z,91.29
2022-09-21T23:53:11.065Z,91.60
2022-09-21T23:55:13.826Z,92.63
2022-09-21T23:57:16.421Z,92.50
2022-09-21T23:59:19.127Z,94.55
